createdAt,value
2023-03-30T00:00:18.130Z,98793.69
2023-03-30T00:03:05.419Z,98796.56
2023-03-30T00:05:32.793Z,98794.09
2023-03-30T00:08:00.292Z,98791.19
2023-03-30T00:10:27.506Z,98790.34
2023-03-30T00:12:54.451Z,98787.44
2023-03-30T00:15:22.852Z,98787.44
2023-03-30T00:17:50.564Z,98773.25
2023-03-30T00:20:18.511Z,98780.66
2023-03-30T00:22:46.876Z,98782.41
2023-03-30T00:25:15.796Z,98782.41
2023-03-30T00:27:42.898Z,98780.75
2023-03-30T00:30:15.434Z,98777.03
2023-03-30T00:32:46.021Z,98776.34
2023-03-30T00:35:13.479Z,98770.03
2023-03-30T00:37:40.389Z,98771.28
2023-03-30T00:40:09.699Z,98770.13
2023-03-30T00:42:36.977Z,98766.59
2023-03-30T00:45:21.956Z,98756.59
2023-03-30T00:47:52.110Z,98756.69
2023-03-30T00:50:24.004Z,98753.16
2023-03-30T00:52:52.390Z,98755.63
2023-03-30T00:55:23.843Z,98750.16
2023-03-30T00:57:51.318Z,98745.84
2023-03-30T01:00:18.790Z,98741.09
2023-03-30T01:02:49.795Z,98739.41
2023-03-30T01:05:17.127Z,98741.09
2023-03-30T01:07:46.327Z,98731.09
2023-03-30T01:10:13.769Z,98741.00
2023-03-30T01:12:40.685Z,98727.66
2023-03-30T01:15:08.737Z,98721.56
2023-03-30T01:17:39.331Z,98729.63
2023-03-30T01:20:25.699Z,98727.31
2023-03-30T01:23:04.573Z,98727.41
2023-03-30T01:25:56.462Z,98729.03
2023-03-30T01:28:53.154Z,98723.03
2023-03-30T01:31:25.949Z,98728.81
2023-03-30T01:34:14.510Z,98727.75
2023-03-30T01:37:09.694Z,98717.22
2023-03-30T01:39:57.915Z,98717.88
2023-03-30T01:42:33.818Z,98705.50
2023-03-30T01:45:07.135Z,98700.91
2023-03-30T01:47:47.930Z,98699.38
2023-03-30T01:50:20.380Z,98712.91
2023-03-30T01:52:59.389Z,98706.56
2023-03-30T01:55:28.670Z,98715.50
2023-03-30T01:57:57.641Z,98721.28
2023-03-30T02:00:24.557Z,98721.41
2023-03-30T02:02:55.497Z,98713.66
2023-03-30T02:05:23.130Z,98718.16
2023-03-30T02:07:53.033Z,98723.25
2023-03-30T02:10:20.225Z,98717.88
2023-03-30T02:12:47.380Z,98716.91
2023-03-30T02:15:14.373Z,98707.88
2023-03-30T02:17:42.472Z,98708.72
2023-03-30T02:20:10.872Z,98710.66
2023-03-30T02:22:38.141Z,98715.19
2023-03-30T02:25:05.612Z,98717.13
2023-03-30T02:27:32.990Z,98708.84
2023-03-30T02:30:00.186Z,98713.44
2023-03-30T02:32:46.466Z,98704.44
2023-03-30T02:35:42.129Z,98706.03
2023-03-30T02:38:32.265Z,98704.13
2023-03-30T02:41:16.360Z,98703.22
2023-03-30T02:43:56.119Z,98709.59
2023-03-30T02:46:33.719Z,98710.13
2023-03-30T02:49:09.887Z,98699.38
2023-03-30T02:51:45.817Z,98690.34
2023-03-30T02:54:32.683Z,98683.25
2023-03-30T02:57:07.830Z,98671.66
2023-03-30T03:00:13.118Z,98668.22
2023-03-30T03:02:42.131Z,98674.25
2023-03-30T03:05:11.081Z,98668.88
2023-03-30T03:07:38.535Z,98671.66
2023-03-30T03:10:06.730Z,98681.66
2023-03-30T03:12:33.935Z,98687.34
2023-03-30T03:15:05.670Z,98680.88
2023-03-30T03:17:35.377Z,98666.81
2023-03-30T03:20:04.061Z,98665.22
2023-03-30T03:22:31.300Z,98655.13
2023-03-30T03:24:58.336Z,98652.63
2023-03-30T03:27:25.180Z,98653.50
2023-03-30T03:29:52.249Z,98648.66
2023-03-30T03:32:19.002Z,98649.53
2023-03-30T03:34:46.160Z,98651.78
2023-03-30T03:37:13.038Z,98654.47
2023-03-30T03:39:40.185Z,98646.53
2023-03-30T03:42:07.227Z,98651.69
2023-03-30T03:44:34.346Z,98634.69
2023-03-30T03:47:01.211Z,98640.50
2023-03-30T03:49:28.388Z,98635.13
2023-03-30T03:51:55.219Z,98630.63
2023-03-30T03:54:22.467Z,98630.81
2023-03-30T03:56:49.370Z,98622.13
2023-03-30T03:59:16.712Z,98626.31
2023-03-30T04:01:43.499Z,98615.34
2023-03-30T04:04:11.010Z,98618.81
2023-03-30T04:06:37.805Z,98609.78
2023-03-30T04:09:04.891Z,98607.41
2023-03-30T04:11:32.005Z,98594.66
2023-03-30T04:13:59.115Z,98593.03
2023-03-30T04:16:25.969Z,98590.22
2023-03-30T04:18:53.081Z,98594.88
2023-03-30T04:21:20.364Z,98589.59
2023-03-30T04:23:49.225Z,98595.81
2023-03-30T04:26:17.547Z,98591.09
2023-03-30T04:28:44.675Z,98592.19
2023-03-30T04:31:12.907Z,98586.03
2023-03-30T04:33:52.112Z,98594.75
2023-03-30T04:36:20.134Z,98578.75
2023-03-30T04:39:00.575Z,98574.22
2023-03-30T04:41:33.369Z,98579.72
2023-03-30T04:44:02.520Z,98576.69
2023-03-30T04:46:29.403Z,98562.75
2023-03-30T04:48:56.732Z,98565.84
2023-03-30T04:51:23.677Z,98573.03
2023-03-30T04:53:50.850Z,98576.28
2023-03-30T04:56:17.798Z,98569.72
2023-03-30T04:58:44.941Z,98563.59
2023-03-30T05:01:11.776Z,98567.91
2023-03-30T05:03:39.086Z,98561.66
2023-03-30T05:06:06.305Z,98568.75
2023-03-30T05:08:34.352Z,98562.22
2023-03-30T05:11:05.205Z,98562.09
2023-03-30T05:13:32.500Z,98583.69
2023-03-30T05:15:59.265Z,98575.63
2023-03-30T05:18:26.389Z,98570.28
2023-03-30T05:20:56.796Z,98562.22
2023-03-30T05:23:24.566Z,98565.84
2023-03-30T05:25:51.703Z,98558.75
2023-03-30T05:28:18.836Z,98560.59
2023-03-30T05:30:46.889Z,98551.06
2023-03-30T05:33:13.962Z,98541.91
2023-03-30T05:35:41.006Z,98520.63
2023-03-30T05:38:08.498Z,98510.88
2023-03-30T05:40:35.501Z,98517.94
2023-03-30T05:43:02.775Z,98493.56
2023-03-30T05:45:29.582Z,98492.00
2023-03-30T05:47:56.706Z,98497.16
2023-03-30T05:50:23.493Z,98489.84
2023-03-30T05:52:50.741Z,98488.00
2023-03-30T05:55:17.744Z,98481.88
2023-03-30T05:57:45.702Z,98486.41
2023-03-30T06:00:13.972Z,98482.63
2023-03-30T06:02:41.170Z,98486.25
2023-03-30T06:05:08.601Z,98480.69
2023-03-30T06:07:37.549Z,98486.94
2023-03-30T06:10:06.176Z,98471.66
2023-03-30T06:12:33.609Z,98477.88
2023-03-30T06:15:03.225Z,98480.34
2023-03-30T06:17:30.574Z,98478.31
2023-03-30T06:19:57.438Z,98488.09
2023-03-30T06:22:24.569Z,98467.22
2023-03-30T06:24:51.656Z,98457.56
2023-03-30T06:27:18.737Z,98463.81
2023-03-30T06:29:45.565Z,98472.50
2023-03-30T06:32:12.754Z,98477.75
2023-03-30T06:34:39.605Z,98482.91
2023-03-30T06:37:08.547Z,98485.50
2023-03-30T06:39:37.860Z,98481.59
2023-03-30T06:42:05.872Z,98484.91
2023-03-30T06:44:33.841Z,98479.88
2023-03-30T06:47:01.876Z,98479.97
2023-03-30T06:49:28.568Z,98478.91
2023-03-30T06:51:55.660Z,98482.34
2023-03-30T06:54:22.594Z,98474.16
2023-03-30T06:56:50.010Z,98477.81
2023-03-30T06:59:17.035Z,98477.59
2023-03-30T07:01:44.861Z,98476.53
2023-03-30T07:04:11.796Z,98485.09
2023-03-30T07:06:38.954Z,98489.16
2023-03-30T07:09:05.805Z,98483.44
2023-03-30T07:11:32.906Z,98486.75
2023-03-30T07:14:01.246Z,98481.88
2023-03-30T07:16:28.489Z,98481.22
2023-03-30T07:18:55.286Z,98477.31
2023-03-30T07:21:22.462Z,98480.72
2023-03-30T07:23:49.383Z,98474.88
2023-03-30T07:26:16.948Z,98474.66
2023-03-30T07:28:45.644Z,98464.28
2023-03-30T07:31:13.922Z,98470.06
2023-03-30T07:33:41.192Z,98459.56
2023-03-30T07:36:09.148Z,98459.31
2023-03-30T07:38:36.402Z,98468.66
2023-03-30T07:41:10.180Z,98481.88
2023-03-30T07:43:37.137Z,98491.03
2023-03-30T07:46:04.570Z,98486.16
2023-03-30T07:48:31.441Z,98483.84
2023-03-30T07:51:06.978Z,98485.19
2023-03-30T07:53:33.872Z,98480.91
2023-03-30T07:56:01.238Z,98481.41
2023-03-30T07:58:29.099Z,98479.25
2023-03-30T08:00:56.300Z,98467.84
2023-03-30T08:03:23.398Z,98466.63
2023-03-30T08:05:54.368Z,98467.13
2023-03-30T08:08:21.232Z,98474.59
2023-03-30T08:10:48.331Z,98462.84
2023-03-30T08:13:15.179Z,98473.34
2023-03-30T08:15:42.305Z,98462.34
2023-03-30T08:18:09.347Z,98463.44
2023-03-30T08:20:37.234Z,98457.06
2023-03-30T08:23:05.008Z,98454.97
2023-03-30T08:25:32.932Z,98452.75
2023-03-30T08:27:59.868Z,98445.28
2023-03-30T08:30:27.285Z,98430.09
2023-03-30T08:32:54.201Z,98450.03
2023-03-30T08:35:21.889Z,98459.59
2023-03-30T08:37:48.878Z,98461.28
2023-03-30T08:40:19.409Z,98459.19
2023-03-30T08:42:47.442Z,98442.38
2023-03-30T08:45:14.675Z,98437.72
2023-03-30T08:47:48.898Z,98437.59
2023-03-30T08:50:16.986Z,98441.88
2023-03-30T08:52:43.839Z,98448.97
2023-03-30T08:55:21.949Z,98427.84
2023-03-30T08:57:52.153Z,98416.19
2023-03-30T09:00:38.650Z,98430.38
2023-03-30T09:03:18.856Z,98431.47
2023-03-30T09:06:08.425Z,98439.44
2023-03-30T09:08:35.268Z,98436.50
2023-03-30T09:11:04.792Z,98411.38
2023-03-30T09:13:33.724Z,98410.31
2023-03-30T09:16:26.228Z,98396.81
2023-03-30T09:18:54.494Z,98390.59
2023-03-30T09:21:22.414Z,98385.66
2023-03-30T09:23:49.309Z,98378.28
2023-03-30T09:26:41.214Z,98374.84
2023-03-30T09:29:14.382Z,98375.75
2023-03-30T09:31:46.461Z,98376.09
2023-03-30T09:34:38.217Z,98363.13
2023-03-30T09:37:07.538Z,98365.69
2023-03-30T09:39:35.445Z,98362.84
2023-03-30T09:42:08.997Z,98343.16
2023-03-30T09:44:39.450Z,98340.47
2023-03-30T09:47:23.150Z,98331.28
2023-03-30T09:49:58.368Z,98335.44
2023-03-30T09:52:27.467Z,98338.97
2023-03-30T09:54:54.398Z,98325.06
2023-03-30T09:57:24.524Z,98326.94
2023-03-30T09:59:52.929Z,98321.22
2023-03-30T10:02:20.796Z,98326.09
2023-03-30T10:04:53.927Z,98320.88
2023-03-30T10:07:26.708Z,98320.75
2023-03-30T10:09:53.755Z,98311.66
2023-03-30T10:12:22.212Z,98321.06
2023-03-30T10:14:54.020Z,98306.13
2023-03-30T10:17:23.298Z,98295.91
2023-03-30T10:20:00.408Z,98291.63
2023-03-30T10:22:34.562Z,98284.72
2023-03-30T10:25:01.799Z,98269.50
2023-03-30T10:27:37.266Z,98278.44
2023-03-30T10:30:11.910Z,98283.00
2023-03-30T10:32:39.030Z,98280.59
2023-03-30T10:35:09.112Z,98269.03
2023-03-30T10:37:38.319Z,98281.72
2023-03-30T10:40:18.801Z,98282.00
2023-03-30T10:42:47.264Z,98271.47
2023-03-30T10:45:16.480Z,98274.16
2023-03-30T10:47:57.982Z,98268.75
2023-03-30T10:51:06.322Z,98268.84
2023-03-30T10:53:45.074Z,98274.72
2023-03-30T10:56:26.649Z,98266.28
2023-03-30T10:59:27.774Z,98264.44
2023-03-30T11:02:01.368Z,98263.13
2023-03-30T11:04:30.715Z,98263.66
2023-03-30T11:06:57.638Z,98243.00
2023-03-30T11:09:32.837Z,98236.59
2023-03-30T11:12:02.181Z,98236.00
2023-03-30T11:14:50.684Z,98224.56
2023-03-30T11:17:23.810Z,98213.44
2023-03-30T11:19:54.272Z,98202.91
2023-03-30T11:22:33.635Z,98211.69
2023-03-30T11:25:00.861Z,98210.81
2023-03-30T11:27:34.077Z,98212.84
2023-03-30T11:30:22.255Z,98212.53
2023-03-30T11:32:57.525Z,98209.06
2023-03-30T11:35:24.697Z,98204.50
2023-03-30T11:38:05.850Z,98193.97
2023-03-30T11:40:39.211Z,98199.66
2023-03-30T11:43:06.084Z,98189.66
2023-03-30T11:45:48.912Z,98186.94
2023-03-30T11:48:19.662Z,98180.22
2023-03-30T11:51:11.618Z,98181.91
2023-03-30T11:53:47.491Z,98183.19
2023-03-30T11:56:19.585Z,98179.31
2023-03-30T11:58:58.553Z,98180.78
2023-03-30T12:01:54.712Z,98176.06
2023-03-30T12:04:45.905Z,98172.88
2023-03-30T12:07:22.681Z,98171.88
2023-03-30T12:10:20.839Z,98197.81
2023-03-30T12:12:49.790Z,98195.41
2023-03-30T12:15:34.891Z,98187.97
2023-03-30T12:18:20.377Z,98185.75
2023-03-30T12:21:10.002Z,98184.72
2023-03-30T12:23:52.810Z,98192.84
2023-03-30T12:26:30.358Z,98186.59
2023-03-30T12:32:04.765Z,98185.03
2023-03-30T12:34:36.661Z,98187.88
2023-03-30T12:37:10.273Z,98190.97
2023-03-30T12:39:50.580Z,98192.00
2023-03-30T12:42:26.673Z,98196.00
2023-03-30T12:45:07.950Z,98196.88
2023-03-30T12:48:24.189Z,98192.59
2023-03-30T12:51:03.584Z,98184.47
2023-03-30T12:53:52.576Z,98189.34
2023-03-30T12:56:28.850Z,98196.16
2023-03-30T12:59:17.329Z,98191.06
2023-03-30T13:02:02.945Z,98199.50
2023-03-30T13:04:41.624Z,98202.91
2023-03-30T13:07:16.833Z,98204.59
2023-03-30T13:10:06.407Z,98203.34
2023-03-30T13:12:38.182Z,98213.78
2023-03-30T13:15:17.353Z,98217.19
2023-03-30T13:17:57.073Z,98222.59
2023-03-30T13:20:37.156Z,98224.47
2023-03-30T13:23:10.812Z,98220.22
2023-03-30T13:25:49.849Z,98238.44
2023-03-30T13:28:32.195Z,98241.47
2023-03-30T13:31:07.837Z,98236.50
2023-03-30T13:33:37.030Z,98241.06
2023-03-30T13:36:32.350Z,98246.66
2023-03-30T13:39:32.445Z,98259.16
2023-03-30T13:42:03.293Z,98258.16
2023-03-30T13:44:36.704Z,98252.50
2023-03-30T13:47:33.180Z,98261.75
2023-03-30T13:50:03.568Z,98257.50
2023-03-30T13:52:38.349Z,98263.91
2023-03-30T13:55:10.037Z,98261.22
2023-03-30T13:57:38.306Z,98262.38
2023-03-30T14:00:28.323Z,98264.34
2023-03-30T14:02:55.370Z,98254.69
2023-03-30T14:05:24.272Z,98250.56
2023-03-30T14:07:55.138Z,98254.44
2023-03-30T14:10:22.720Z,98255.97
2023-03-30T14:12:55.223Z,98264.41
2023-03-30T14:15:23.499Z,98254.72
2023-03-30T14:17:54.527Z,98251.31
2023-03-30T14:20:43.413Z,98257.72
2023-03-30T14:23:23.169Z,98245.91
2023-03-30T14:25:53.822Z,98249.03
2023-03-30T14:28:21.248Z,98237.22
2023-03-30T14:30:53.917Z,98234.53
2023-03-30T14:33:21.010Z,98231.97
2023-03-30T14:35:56.689Z,98224.84
2023-03-30T14:38:25.497Z,98218.03
2023-03-30T14:40:53.474Z,98221.16
2023-03-30T14:43:22.304Z,98206.22
2023-03-30T14:45:49.492Z,98208.94
2023-03-30T14:48:21.613Z,98206.69
2023-03-30T14:50:49.800Z,98208.50
2023-03-30T14:53:24.484Z,98206.97
2023-03-30T14:55:51.808Z,98205.94
2023-03-30T14:58:18.780Z,98205.53
2023-03-30T15:00:46.110Z,98204.41
2023-03-30T15:03:26.441Z,98193.44
2023-03-30T15:06:00.915Z,98184.78
2023-03-30T15:08:30.484Z,98186.63
2023-03-30T15:10:58.749Z,98180.22
2023-03-30T15:13:36.756Z,98173.22
2023-03-30T15:16:04.798Z,98176.41
2023-03-30T15:18:31.680Z,98162.44
2023-03-30T15:20:58.926Z,98162.28
2023-03-30T15:23:28.220Z,98152.63
2023-03-30T15:25:56.214Z,98156.19
2023-03-30T15:28:23.013Z,98154.22
2023-03-30T15:30:53.414Z,98150.94
2023-03-30T15:33:20.417Z,98135.44
2023-03-30T15:35:49.708Z,98133.72
2023-03-30T15:38:17.203Z,98135.56
2023-03-30T15:40:46.017Z,98132.16
2023-03-30T15:43:17.031Z,98134.47
2023-03-30T15:46:01.770Z,98119.38
2023-03-30T15:48:46.180Z,98123.22
2023-03-30T15:51:44.441Z,98118.81
2023-03-30T15:54:16.152Z,98112.72
2023-03-30T15:56:49.498Z,98104.75
2023-03-30T15:59:18.705Z,98096.78
2023-03-30T16:01:55.124Z,98091.13
2023-03-30T16:04:23.703Z,98088.13
2023-03-30T16:06:50.969Z,98081.00
2023-03-30T16:09:17.832Z,98069.63
2023-03-30T16:11:45.583Z,98071.94
2023-03-30T16:14:14.247Z,98076.91
2023-03-30T16:16:41.410Z,98072.06
2023-03-30T16:19:17.456Z,98069.94
2023-03-30T16:21:45.595Z,98055.03
2023-03-30T16:24:12.607Z,98053.44
2023-03-30T16:26:39.862Z,98043.63
2023-03-30T16:29:15.989Z,98037.53
2023-03-30T16:31:43.204Z,98051.19
2023-03-30T16:34:10.020Z,98057.88
2023-03-30T16:36:37.508Z,98047.38
2023-03-30T16:39:05.740Z,98034.00
2023-03-30T16:41:32.936Z,98033.31
2023-03-30T16:43:59.697Z,98042.09
2023-03-30T16:46:27.082Z,98034.91
2023-03-30T16:48:53.929Z,98031.47
2023-03-30T16:51:21.241Z,98029.03
2023-03-30T16:53:48.069Z,98033.03
2023-03-30T16:56:18.795Z,98026.06
2023-03-30T16:58:46.096Z,98022.53
2023-03-30T17:01:14.054Z,98023.50
2023-03-30T17:03:40.862Z,98032.19
2023-03-30T17:06:08.168Z,98045.50
2023-03-30T17:08:34.955Z,98044.25
2023-03-30T17:11:03.709Z,98040.25
2023-03-30T17:13:31.951Z,98037.13
2023-03-30T17:16:01.279Z,98040.25
2023-03-30T17:18:28.445Z,98052.22
2023-03-30T17:20:56.609Z,98057.63
2023-03-30T17:23:25.636Z,98052.38
2023-03-30T17:25:53.959Z,98063.19
2023-03-30T17:28:49.464Z,98066.72
2023-03-30T17:31:18.675Z,98083.94
2023-03-30T17:33:46.368Z,98073.00
2023-03-30T17:36:21.592Z,98061.22
2023-03-30T17:38:48.472Z,98068.88
2023-03-30T17:41:15.792Z,98079.81
2023-03-30T17:43:43.713Z,98086.38
2023-03-30T17:46:12.617Z,98086.94
2023-03-30T17:48:39.677Z,98111.09
2023-03-30T17:51:07.015Z,98113.66
2023-03-30T17:53:33.934Z,98122.19
2023-03-30T17:56:01.113Z,98128.47
2023-03-30T17:58:32.012Z,98125.03
2023-03-30T18:01:00.113Z,98111.09
2023-03-30T18:03:29.419Z,98123.34
2023-03-30T18:05:57.215Z,98121.75
2023-03-30T18:08:24.468Z,98121.75
2023-03-30T18:10:52.960Z,98123.34
2023-03-30T18:13:20.486Z,98123.47
2023-03-30T18:15:49.833Z,98123.75
2023-03-30T18:18:24.790Z,98118.50
2023-03-30T18:20:57.203Z,98115.78
2023-03-30T18:23:24.008Z,98114.53
2023-03-30T18:25:51.288Z,98112.09
2023-03-30T18:28:25.642Z,98101.31
2023-03-30T18:30:55.298Z,98105.69
2023-03-30T18:33:23.329Z,98101.44
2023-03-30T18:35:51.409Z,98102.13
2023-03-30T18:38:20.129Z,98094.03
2023-03-30T18:40:53.606Z,98084.41
2023-03-30T18:43:20.446Z,98076.44
2023-03-30T18:45:48.656Z,98088.38
2023-03-30T18:48:17.527Z,98083.25
2023-03-30T18:50:45.940Z,98083.25
2023-03-30T18:53:14.070Z,98074.44
2023-03-30T18:55:43.026Z,98074.88
2023-03-30T18:58:21.068Z,98073.88
2023-03-30T19:00:48.916Z,98062.94
2023-03-30T19:03:16.840Z,98070.03
2023-03-30T19:05:44.782Z,98075.28
2023-03-30T19:08:18.748Z,98068.34
2023-03-30T19:10:46.622Z,98076.56
2023-03-30T19:13:14.273Z,98072.91
2023-03-30T19:15:41.520Z,98071.19
2023-03-30T19:18:08.558Z,98074.25
2023-03-30T19:20:38.082Z,98072.28
2023-03-30T19:23:05.058Z,98060.78
2023-03-30T19:25:32.206Z,98068.88
2023-03-30T19:28:03.798Z,98052.38
2023-03-30T19:30:33.642Z,98052.38
2023-03-30T19:33:03.311Z,98047.13
2023-03-30T19:35:30.636Z,98058.78
2023-03-30T19:37:57.587Z,98054.53
2023-03-30T19:41:07.444Z,98040.19
2023-03-30T19:44:07.818Z,98036.47
2023-03-30T19:46:43.312Z,98027.94
2023-03-30T19:49:54.699Z,98032.22
2023-03-30T19:52:22.843Z,98034.22
2023-03-30T19:54:58.790Z,98031.66
2023-03-30T19:57:26.169Z,98022.41
2023-03-30T19:59:53.036Z,98023.56
2023-03-30T20:02:20.339Z,98020.88
2023-03-30T20:04:47.730Z,98016.75
2023-03-30T20:07:15.641Z,98021.28
2023-03-30T20:09:42.568Z,98024.41
2023-03-30T20:12:09.999Z,98016.75
2023-03-30T20:14:37.227Z,98010.91
2023-03-30T20:17:04.494Z,98010.78
2023-03-30T20:19:31.264Z,98009.66
2023-03-30T20:21:58.571Z,98002.81
2023-03-30T20:24:25.841Z,98002.97
2023-03-30T20:26:53.121Z,97994.72
2023-03-30T20:29:19.881Z,97996.72
2023-03-30T20:31:46.969Z,97997.97
2023-03-30T20:34:15.484Z,97994.31
2023-03-30T20:36:42.866Z,97994.44
2023-03-30T20:39:10.133Z,98008.22
2023-03-30T20:41:40.063Z,97999.13
2023-03-30T20:44:18.164Z,98000.84
2023-03-30T20:46:45.388Z,98002.66
2023-03-30T20:49:13.003Z,98005.09
2023-03-30T20:51:40.273Z,98009.66
2023-03-30T20:54:07.163Z,98012.63
2023-03-30T20:56:34.225Z,98017.16
2023-03-30T20:59:02.380Z,98014.88
2023-03-30T21:01:30.248Z,98027.38
2023-03-30T21:03:58.182Z,98021.97
2023-03-30T21:06:27.069Z,98015.88
2023-03-30T21:08:54.885Z,98013.31
2023-03-30T21:11:22.691Z,98016.28
2023-03-30T21:13:52.691Z,98013.47
2023-03-30T21:16:19.833Z,98013.59
2023-03-30T21:18:46.702Z,98004.38
2023-03-30T21:21:13.768Z,97994.84
2023-03-30T21:23:41.519Z,97991.03
2023-03-30T21:26:09.136Z,97991.19
2023-03-30T21:28:36.284Z,97993.88
2023-03-30T21:31:08.007Z,97996.16
2023-03-30T21:33:35.530Z,98003.53
2023-03-30T21:36:03.338Z,97994.84
2023-03-30T21:38:30.605Z,98006.53
2023-03-30T21:41:00.816Z,98001.00
2023-03-30T21:43:32.222Z,98010.19
2023-03-30T21:46:09.835Z,98001.53
2023-03-30T21:48:38.423Z,98003.41
2023-03-30T21:51:07.970Z,97991.44
2023-03-30T21:53:35.306Z,97992.31
2023-03-30T21:56:03.031Z,98006.91
2023-03-30T21:58:29.969Z,97995.72
2023-03-30T22:01:10.613Z,97992.47
2023-03-30T22:03:39.804Z,97999.09
2023-03-30T22:06:08.017Z,97997.16
2023-03-30T22:08:35.400Z,97994.28
2023-03-30T22:11:04.541Z,97995.16
2023-03-30T22:13:31.463Z,98007.94
2023-03-30T22:16:04.170Z,98018.41
2023-03-30T22:18:31.413Z,98012.59
2023-03-30T22:21:03.333Z,98014.88
2023-03-30T22:23:30.527Z,98021.09
2023-03-30T22:25:58.137Z,98026.50
2023-03-30T22:28:25.252Z,98014.72
2023-03-30T22:30:52.549Z,98012.19
2023-03-30T22:33:19.462Z,98012.19
2023-03-30T22:35:46.913Z,98011.34
2023-03-30T22:38:14.113Z,98013.00
2023-03-30T22:40:44.183Z,98013.16
2023-03-30T22:43:11.838Z,98012.31
2023-03-30T22:45:39.547Z,98010.31
2023-03-30T22:48:06.552Z,98013.31
2023-03-30T22:50:34.528Z,98006.91
2023-03-30T22:53:01.387Z,98003.94
2023-03-30T22:55:28.534Z,98004.94
2023-03-30T22:57:56.643Z,97998.69
2023-03-30T23:00:24.731Z,97995.16
2023-03-30T23:02:51.690Z,97995.44
2023-03-30T23:05:21.439Z,97995.00
2023-03-30T23:07:48.953Z,97999.09
2023-03-30T23:10:18.247Z,98006.06
2023-03-30T23:12:45.583Z,98010.75
2023-03-30T23:15:13.044Z,98011.59
2023-03-30T23:17:39.866Z,98012.72
2023-03-30T23:20:10.470Z,98009.72
2023-03-30T23:22:38.349Z,98020.81
2023-03-30T23:25:06.107Z,98007.47
2023-03-30T23:27:33.547Z,98003.78
2023-03-30T23:30:00.746Z,98000.50
2023-03-30T23:32:27.525Z,97995.25
2023-03-30T23:34:54.653Z,97996.09
2023-03-30T23:40:07.838Z,97989.56
2023-03-30T23:42:34.711Z,97995.09
2023-03-30T23:45:01.805Z,97993.53
2023-03-30T23:47:29.100Z,97992.66
2023-03-30T23:49:56.376Z,97995.34
2023-03-30T23:52:23.202Z,97991.69
2023-03-30T23:54:52.417Z,98002.72
2023-03-30T23:57:20.008Z,97997.22
2023-03-30T23:59:47.181Z,98002.88
